createdAt,value
2018-06-02T00:06:02.085Z,99.99
2018-06-02T00:17:03.843Z,99.99
2018-06-02T00:28:01.163Z,99.99
2018-06-02T00:39:05.211Z,99.99
2018-06-02T00:50:03.549Z,99.99
2018-06-02T01:01:04.162Z,99.99
2018-06-02T01:12:03.464Z,99.99
2018-06-02T01:23:02.499Z,99.99
2018-06-02T01:34:04.702Z,99.99
2018-06-02T01:45:01.692Z,99.99
2018-06-02T01:56:01.957Z,99.99
2018-06-02T02:07:00.219Z,99.99
2018-06-02T02:18:00.614Z,99.99
2018-06-02T02:28:59.219Z,99.99
2018-06-02T02:39:59.844Z,99.99
2018-06-02T02:50:59.558Z,99.99
2018-06-02T03:01:58.318Z,99.99
2018-06-02T03:12:58.616Z,99.99
2018-06-02T03:23:59.270Z,99.99
2018-06-02T03:35:04.090Z,99.99
2018-06-02T03:46:07.254Z,99.99
2018-06-02T03:57:06.792Z,99.99
2018-06-02T04:08:08.224Z,99.99
2018-06-02T04:19:12.905Z,99.99
2018-06-02T04:30:15.877Z,99.99
2018-06-02T04:41:17.265Z,99.99
2018-06-02T04:52:14.100Z,99.99
2018-06-02T05:03:18.984Z,99.99
2018-06-02T05:14:23.378Z,99.99
2018-06-02T05:25:24.285Z,99.99
2018-06-02T05:36:22.977Z,99.99
2018-06-02T05:47:21.991Z,99.99
2018-06-02T05:58:26.976Z,99.99
2018-06-02T06:09:26.731Z,99.99
2018-06-02T06:20:28.976Z,99.99
2018-06-02T06:31:31.808Z,98.35
2018-06-02T06:42:37.358Z,91.68
2018-06-02T06:53:36.399Z,92.48
2018-06-02T07:04:40.171Z,90.80
2018-06-02T07:15:39.779Z,90.52
2018-06-02T07:26:40.730Z,87.73
2018-06-02T07:37:31.880Z,88.18
2018-06-02T07:48:28.854Z,89.23
2018-06-02T07:59:22.921Z,85.56
2018-06-02T08:10:17.062Z,84.78
2018-06-02T08:21:15.119Z,83.00
2018-06-02T08:32:13.347Z,79.18
2018-06-02T08:43:10.804Z,76.01
2018-06-02T08:54:06.711Z,71.73
2018-06-02T09:05:03.920Z,73.09
2018-06-02T09:16:03.164Z,71.67
2018-06-02T09:27:03.137Z,74.46
2018-06-02T09:38:07.570Z,75.42
2018-06-02T09:49:12.094Z,72.32
2018-06-02T10:00:11.101Z,70.70
2018-06-02T10:11:07.225Z,72.05
2018-06-02T10:22:06.967Z,66.09
2018-06-02T10:33:08.261Z,67.55
2018-06-02T10:44:06.478Z,67.84
2018-06-02T10:55:02.496Z,70.47
2018-06-02T11:06:00.105Z,65.91
2018-06-02T11:16:43.025Z,66.56
2018-06-02T11:27:28.102Z,65.94
2018-06-02T11:38:10.301Z,67.44
2018-06-02T11:49:09.746Z,67.28
2018-06-02T12:00:10.532Z,72.06
2018-06-02T12:11:14.439Z,74.46
2018-06-02T12:22:13.626Z,71.75
2018-06-02T12:33:18.575Z,74.40
2018-06-02T12:44:23.778Z,71.59
2018-06-02T12:55:27.027Z,68.40
2018-06-02T13:06:31.425Z,68.17
2018-06-02T13:17:29.874Z,72.52
2018-06-02T13:28:33.895Z,79.58
2018-06-02T13:39:34.633Z,81.41
2018-06-02T13:50:34.391Z,77.05
2018-06-02T14:01:35.904Z,75.09
2018-06-02T14:12:38.040Z,76.67
2018-06-02T14:23:41.913Z,76.80
2018-06-02T14:34:40.286Z,75.81
2018-06-02T14:45:40.252Z,74.89
2018-06-02T14:56:41.504Z,72.97
2018-06-02T15:07:48.151Z,77.04
2018-06-02T15:18:43.598Z,73.47
2018-06-02T15:29:42.723Z,73.86
2018-06-02T15:40:40.568Z,72.06
2018-06-02T15:51:38.132Z,75.62
2018-06-02T16:02:36.295Z,77.04
2018-06-02T16:13:27.541Z,79.37
2018-06-02T16:24:07.748Z,78.46
2018-06-02T16:34:56.190Z,79.79
2018-06-02T16:45:50.049Z,76.32
2018-06-02T16:56:46.044Z,77.74
2018-06-02T17:07:45.026Z,84.50
2018-06-02T17:18:44.725Z,81.07
2018-06-02T17:29:39.823Z,87.80
2018-06-02T17:40:32.162Z,88.04
2018-06-02T17:51:22.905Z,89.67
2018-06-02T18:02:20.670Z,89.02
2018-06-02T18:13:22.824Z,92.15
2018-06-02T18:24:19.600Z,92.89
2018-06-02T18:35:18.165Z,92.83
2018-06-02T18:46:20.205Z,99.15
2018-06-02T18:57:16.154Z,99.99
2018-06-02T19:08:19.225Z,97.50
2018-06-02T19:19:15.179Z,99.99
2018-06-02T19:30:09.786Z,99.99
2018-06-02T19:41:07.696Z,99.99
2018-06-02T19:52:18.871Z,99.99
2018-06-02T20:03:15.690Z,99.99
2018-06-02T20:14:12.764Z,99.99
2018-06-02T20:25:09.664Z,99.99
2018-06-02T20:36:00.166Z,99.99
2018-06-02T20:46:56.038Z,99.99
2018-06-02T20:57:52.404Z,99.99
2018-06-02T21:08:47.540Z,99.99
2018-06-02T21:19:51.105Z,99.99
2018-06-02T21:30:52.982Z,99.99
2018-06-02T21:41:48.775Z,99.99
2018-06-02T21:52:52.368Z,99.99
2018-06-02T22:03:50.061Z,99.99
2018-06-02T22:14:45.079Z,99.99
2018-06-02T22:25:49.195Z,99.99
2018-06-02T22:36:48.818Z,99.99
2018-06-02T22:47:50.814Z,99.99
2018-06-02T22:58:50.855Z,99.99
2018-06-02T23:09:52.532Z,99.99
2018-06-02T23:20:55.682Z,99.99
2018-06-02T23:31:55.391Z,99.99
2018-06-02T23:42:55.120Z,99.99
2018-06-02T23:53:54.233Z,99.99
